sensor_id;sensor_type;location;lat;lon;timestamp;temperature;humidity
66102;HTU21D;52883;51.094;5.880;2023-04-04T00:00:19;0.44;118.99
66102;HTU21D;52883;51.094;5.880;2023-04-04T00:02:45;0.46;118.99
66102;HTU21D;52883;51.094;5.880;2023-04-04T00:05:10;0.45;118.99
66102;HTU21D;52883;51.094;5.880;2023-04-04T00:07:36;0.39;118.99
66102;HTU21D;52883;51.094;5.880;2023-04-04T00:10:01;0.39;118.99
66102;HTU21D;52883;51.094;5.880;2023-04-04T00:12:27;0.34;118.99
66102;HTU21D;52883;51.094;5.880;2023-04-04T00:14:53;0.30;118.99
66102;HTU21D;52883;51.094;5.880;2023-04-04T00:17:18;0.29;118.99
66102;HTU21D;52883;51.094;5.880;2023-04-04T00:19:44;0.31;118.99
66102;HTU21D;52883;51.094;5.880;2023-04-04T00:22:10;0.39;118.99
66102;HTU21D;52883;51.094;5.880;2023-04-04T00:24:38;0.44;118.99
66102;HTU21D;52883;51.094;5.880;2023-04-04T00:27:03;0.43;118.99
66102;HTU21D;52883;51.094;5.880;2023-04-04T00:29:29;0.43;118.99
66102;HTU21D;52883;51.094;5.880;2023-04-04T00:31:56;0.40;118.99
66102;HTU21D;52883;51.094;5.880;2023-04-04T00:34:22;0.33;118.99
66102;HTU21D;52883;51.094;5.880;2023-04-04T00:36:48;0.24;118.99
66102;HTU21D;52883;51.094;5.880;2023-04-04T00:39:14;0.23;118.99
66102;HTU21D;52883;51.094;5.880;2023-04-04T00:41:39;0.25;118.99
66102;HTU21D;52883;51.094;5.880;2023-04-04T00:44:05;0.19;118.99
66102;HTU21D;52883;51.094;5.880;2023-04-04T00:46:31;0.20;118.99
66102;HTU21D;52883;51.094;5.880;2023-04-04T00:48:57;0.23;118.99
66102;HTU21D;52883;51.094;5.880;2023-04-04T00:51:23;0.31;118.99
66102;HTU21D;52883;51.094;5.880;2023-04-04T00:53:51;0.29;118.99
66102;HTU21D;52883;51.094;5.880;2023-04-04T00:56:17;0.24;118.99
66102;HTU21D;52883;51.094;5.880;2023-04-04T00:58:43;0.15;118.99
66102;HTU21D;52883;51.094;5.880;2023-04-04T01:01:10;0.17;118.99
66102;HTU21D;52883;51.094;5.880;2023-04-04T01:03:36;0.20;118.99
66102;HTU21D;52883;51.094;5.880;2023-04-04T01:06:02;0.21;118.99
66102;HTU21D;52883;51.094;5.880;2023-04-04T01:08:29;0.28;118.99
66102;HTU21D;52883;51.094;5.880;2023-04-04T01:10:56;0.32;118.99
66102;HTU21D;52883;51.094;5.880;2023-04-04T01:13:22;0.35;118.99
66102;HTU21D;52883;51.094;5.880;2023-04-04T01:15:49;0.38;118.99
66102;HTU21D;52883;51.094;5.880;2023-04-04T01:18:18;0.40;118.99
66102;HTU21D;52883;51.094;5.880;2023-04-04T01:21:02;0.33;118.99
66102;HTU21D;52883;51.094;5.880;2023-04-04T01:26:09;0.27;118.99
66102;HTU21D;52883;51.094;5.880;2023-04-04T01:28:35;0.29;118.99
66102;HTU21D;52883;51.094;5.880;2023-04-04T01:31:06;0.24;118.99
66102;HTU21D;52883;51.094;5.880;2023-04-04T01:33:46;0.21;118.99
66102;HTU21D;52883;51.094;5.880;2023-04-04T01:39:39;0.08;118.99
66102;HTU21D;52883;51.094;5.880;2023-04-04T01:42:08;-0.00;118.99
66102;HTU21D;52883;51.094;5.880;2023-04-04T01:44:35;-0.14;118.99
66102;HTU21D;52883;51.094;5.880;2023-04-04T01:47:00;-0.20;118.99
66102;HTU21D;52883;51.094;5.880;2023-04-04T01:49:27;-0.27;118.99
66102;HTU21D;52883;51.094;5.880;2023-04-04T01:51:55;-0.37;118.99
66102;HTU21D;52883;51.094;5.880;2023-04-04T01:54:21;-0.39;118.99
66102;HTU21D;52883;51.094;5.880;2023-04-04T01:56:47;-0.44;118.99
66102;HTU21D;52883;51.094;5.880;2023-04-04T01:59:12;-0.49;118.99
66102;HTU21D;52883;51.094;5.880;2023-04-04T02:01:38;-0.55;118.99
66102;HTU21D;52883;51.094;5.880;2023-04-04T02:04:04;-0.59;118.99
66102;HTU21D;52883;51.094;5.880;2023-04-04T02:06:31;-0.66;118.99
66102;HTU21D;52883;51.094;5.880;2023-04-04T02:08:57;-0.71;118.99
66102;HTU21D;52883;51.094;5.880;2023-04-04T02:11:24;-0.76;118.99
66102;HTU21D;52883;51.094;5.880;2023-04-04T02:13:50;-0.73;118.99
66102;HTU21D;52883;51.094;5.880;2023-04-04T02:16:17;-0.65;118.99
66102;HTU21D;52883;51.094;5.880;2023-04-04T02:18:43;-0.68;118.99
66102;HTU21D;52883;51.094;5.880;2023-04-04T02:21:09;-0.72;118.99
66102;HTU21D;52883;51.094;5.880;2023-04-04T02:23:35;-0.76;118.99
66102;HTU21D;52883;51.094;5.880;2023-04-04T02:26:01;-0.75;118.99
66102;HTU21D;52883;51.094;5.880;2023-04-04T02:28:29;-0.75;118.99
66102;HTU21D;52883;51.094;5.880;2023-04-04T02:30:59;-0.84;118.99
66102;HTU21D;52883;51.094;5.880;2023-04-04T02:33:27;-0.90;118.99
66102;HTU21D;52883;51.094;5.880;2023-04-04T02:35:57;-0.85;118.99
66102;HTU21D;52883;51.094;5.880;2023-04-04T02:38:23;-0.85;118.99
66102;HTU21D;52883;51.094;5.880;2023-04-04T02:40:51;-0.89;118.99
66102;HTU21D;52883;51.094;5.880;2023-04-04T02:43:16;-0.88;118.99
66102;HTU21D;52883;51.094;5.880;2023-04-04T02:45:43;-0.94;118.99
66102;HTU21D;52883;51.094;5.880;2023-04-04T02:48:17;-1.02;118.99
66102;HTU21D;52883;51.094;5.880;2023-04-04T02:50:46;-1.13;118.99
66102;HTU21D;52883;51.094;5.880;2023-04-04T02:53:14;-1.19;118.99
66102;HTU21D;52883;51.094;5.880;2023-04-04T02:55:40;-1.26;118.99
66102;HTU21D;52883;51.094;5.880;2023-04-04T02:58:07;-1.25;118.99
66102;HTU21D;52883;51.094;5.880;2023-04-04T03:00:32;-1.17;118.99
66102;HTU21D;52883;51.094;5.880;2023-04-04T03:02:58;-1.10;118.99
66102;HTU21D;52883;51.094;5.880;2023-04-04T03:05:30;-1.12;118.99
66102;HTU21D;52883;51.094;5.880;2023-04-04T03:07:57;-1.20;118.99
66102;HTU21D;52883;51.094;5.880;2023-04-04T03:10:25;-1.32;118.99
66102;HTU21D;52883;51.094;5.880;2023-04-04T03:12:52;-1.41;118.99
66102;HTU21D;52883;51.094;5.880;2023-04-04T03:15:20;-1.40;118.99
66102;HTU21D;52883;51.094;5.880;2023-04-04T03:17:46;-1.40;118.99
66102;HTU21D;52883;51.094;5.880;2023-04-04T03:20:12;-1.48;118.99
66102;HTU21D;52883;51.094;5.880;2023-04-04T03:22:39;-1.46;118.99
66102;HTU21D;52883;51.094;5.880;2023-04-04T03:25:06;-1.36;118.99
66102;HTU21D;52883;51.094;5.880;2023-04-04T03:27:32;-1.26;118.99
66102;HTU21D;52883;51.094;5.880;2023-04-04T03:29:58;-1.23;118.99
66102;HTU21D;52883;51.094;5.880;2023-04-04T03:32:27;-1.21;118.99
66102;HTU21D;52883;51.094;5.880;2023-04-04T03:34:53;-1.18;118.99
66102;HTU21D;52883;51.094;5.880;2023-04-04T03:37:18;-1.16;118.99
66102;HTU21D;52883;51.094;5.880;2023-04-04T03:39:44;-1.23;118.99
66102;HTU21D;52883;51.094;5.880;2023-04-04T03:42:10;-1.29;118.99
66102;HTU21D;52883;51.094;5.880;2023-04-04T03:44:41;-1.33;118.99
66102;HTU21D;52883;51.094;5.880;2023-04-04T03:47:10;-1.36;118.99
66102;HTU21D;52883;51.094;5.880;2023-04-04T03:49:35;-1.40;118.99
66102;HTU21D;52883;51.094;5.880;2023-04-04T03:52:01;-1.47;118.99
66102;HTU21D;52883;51.094;5.880;2023-04-04T03:54:27;-1.47;118.99
66102;HTU21D;52883;51.094;5.880;2023-04-04T03:56:54;-1.48;118.99
66102;HTU21D;52883;51.094;5.880;2023-04-04T03:59:21;-1.49;118.99
66102;HTU21D;52883;51.094;5.880;2023-04-04T04:01:47;-1.49;118.99
66102;HTU21D;52883;51.094;5.880;2023-04-04T04:04:13;-1.38;118.99
66102;HTU21D;52883;51.094;5.880;2023-04-04T04:06:39;-1.32;118.99
66102;HTU21D;52883;51.094;5.880;2023-04-04T04:09:04;-1.35;118.99
66102;HTU21D;52883;51.094;5.880;2023-04-04T04:11:30;-1.47;118.99
66102;HTU21D;52883;51.094;5.880;2023-04-04T04:13:56;-1.61;118.99
66102;HTU21D;52883;51.094;5.880;2023-04-04T04:16:21;-1.71;118.99
66102;HTU21D;52883;51.094;5.880;2023-04-04T04:18:48;-1.75;118.99
66102;HTU21D;52883;51.094;5.880;2023-04-04T04:21:21;-1.83;118.99
66102;HTU21D;52883;51.094;5.880;2023-04-04T04:23:46;-1.89;118.99
66102;HTU21D;52883;51.094;5.880;2023-04-04T04:26:12;-1.87;118.99
66102;HTU21D;52883;51.094;5.880;2023-04-04T04:28:38;-1.87;118.99
66102;HTU21D;52883;51.094;5.880;2023-04-04T04:31:09;-1.90;118.99
66102;HTU21D;52883;51.094;5.880;2023-04-04T04:33:41;-1.90;118.99
66102;HTU21D;52883;51.094;5.880;2023-04-04T04:36:07;-1.80;118.99
66102;HTU21D;52883;51.094;5.880;2023-04-04T04:38:47;-1.78;118.99
66102;HTU21D;52883;51.094;5.880;2023-04-04T04:41:14;-1.83;118.99
66102;HTU21D;52883;51.094;5.880;2023-04-04T04:43:44;-1.88;118.99
66102;HTU21D;52883;51.094;5.880;2023-04-04T04:46:10;-1.94;118.99
66102;HTU21D;52883;51.094;5.880;2023-04-04T04:48:35;-1.95;118.99
66102;HTU21D;52883;51.094;5.880;2023-04-04T04:51:02;-2.01;118.99
66102;HTU21D;52883;51.094;5.880;2023-04-04T04:53:42;-2.04;118.99
66102;HTU21D;52883;51.094;5.880;2023-04-04T04:56:08;-2.02;118.99
66102;HTU21D;52883;51.094;5.880;2023-04-04T04:58:36;-2.02;118.99
66102;HTU21D;52883;51.094;5.880;2023-04-04T05:01:04;-2.00;118.99
66102;HTU21D;52883;51.094;5.880;2023-04-04T05:03:36;-1.92;118.99
66102;HTU21D;52883;51.094;5.880;2023-04-04T05:06:05;-1.89;118.99
66102;HTU21D;52883;51.094;5.880;2023-04-04T05:08:31;-1.85;118.99
66102;HTU21D;52883;51.094;5.880;2023-04-04T05:11:17;-1.83;118.99
66102;HTU21D;52883;51.094;5.880;2023-04-04T05:13:42;-1.88;118.99
66102;HTU21D;52883;51.094;5.880;2023-04-04T05:16:09;-1.95;118.99
66102;HTU21D;52883;51.094;5.880;2023-04-04T05:18:36;-1.97;118.99
66102;HTU21D;52883;51.094;5.880;2023-04-04T05:21:03;-2.04;118.99
66102;HTU21D;52883;51.094;5.880;2023-04-04T05:23:29;-2.06;118.99
66102;HTU21D;52883;51.094;5.880;2023-04-04T05:25:55;-2.06;118.99
66102;HTU21D;52883;51.094;5.880;2023-04-04T05:28:23;-2.03;118.99
66102;HTU21D;52883;51.094;5.880;2023-04-04T05:30:49;-1.99;118.99
66102;HTU21D;52883;51.094;5.880;2023-04-04T05:33:19;-1.92;118.99
66102;HTU21D;52883;51.094;5.880;2023-04-04T05:35:56;-1.83;118.99
66102;HTU21D;52883;51.094;5.880;2023-04-04T05:38:21;-1.59;118.99
66102;HTU21D;52883;51.094;5.880;2023-04-04T05:40:52;-1.20;118.99
66102;HTU21D;52883;51.094;5.880;2023-04-04T05:43:19;-0.88;118.99
66102;HTU21D;52883;51.094;5.880;2023-04-04T05:45:55;-0.75;118.99
66102;HTU21D;52883;51.094;5.880;2023-04-04T05:48:22;-0.62;118.99
66102;HTU21D;52883;51.094;5.880;2023-04-04T05:50:50;0.35;118.99
66102;HTU21D;52883;51.094;5.880;2023-04-04T05:53:19;1.97;118.99
66102;HTU21D;52883;51.094;5.880;2023-04-04T05:55:51;3.34;118.99
66102;HTU21D;52883;51.094;5.880;2023-04-04T05:58:18;4.43;118.99
66102;HTU21D;52883;51.094;5.880;2023-04-04T06:00:48;5.30;118.99
66102;HTU21D;52883;51.094;5.880;2023-04-04T06:03:14;6.02;118.99
66102;HTU21D;52883;51.094;5.880;2023-04-04T06:05:42;6.81;118.99
66102;HTU21D;52883;51.094;5.880;2023-04-04T06:08:09;7.16;116.63
66102;HTU21D;52883;51.094;5.880;2023-04-04T06:10:35;7.24;116.03
66102;HTU21D;52883;51.094;5.880;2023-04-04T06:13:01;7.68;112.49
66102;HTU21D;52883;51.094;5.880;2023-04-04T06:15:27;7.85;107.12
66102;HTU21D;52883;51.094;5.880;2023-04-04T06:17:53;7.41;110.97
66102;HTU21D;52883;51.094;5.880;2023-04-04T06:20:18;7.75;111.77
66102;HTU21D;52883;51.094;5.880;2023-04-04T06:22:47;8.38;105.63
66102;HTU21D;52883;51.094;5.880;2023-04-04T06:25:14;8.88;99.47
66102;HTU21D;52883;51.094;5.880;2023-04-04T06:27:40;8.63;97.06
66102;HTU21D;52883;51.094;5.880;2023-04-04T06:30:06;8.16;101.74
66102;HTU21D;52883;51.094;5.880;2023-04-04T06:32:33;7.90;99.27
66102;HTU21D;52883;51.094;5.880;2023-04-04T06:34:59;7.09;106.86
66102;HTU21D;52883;51.094;5.880;2023-04-04T06:37:38;6.25;115.50
66102;HTU21D;52883;51.094;5.880;2023-04-04T06:40:13;6.46;117.88
66102;HTU21D;52883;51.094;5.880;2023-04-04T06:42:50;6.89;109.65
66102;HTU21D;52883;51.094;5.880;2023-04-04T06:45:18;6.89;113.80
66102;HTU21D;52883;51.094;5.880;2023-04-04T06:47:43;7.23;110.91
66102;HTU21D;52883;51.094;5.880;2023-04-04T06:50:09;7.42;108.97
66102;HTU21D;52883;51.094;5.880;2023-04-04T06:52:36;7.64;108.30
66102;HTU21D;52883;51.094;5.880;2023-04-04T06:55:02;7.84;106.01
66102;HTU21D;52883;51.094;5.880;2023-04-04T06:57:28;8.06;100.77
66102;HTU21D;52883;51.094;5.880;2023-04-04T06:59:54;8.12;100.15
66102;HTU21D;52883;51.094;5.880;2023-04-04T07:02:19;7.65;101.19
66102;HTU21D;52883;51.094;5.880;2023-04-04T07:04:45;6.70;103.99
66102;HTU21D;52883;51.094;5.880;2023-04-04T07:07:11;5.84;117.36
66102;HTU21D;52883;51.094;5.880;2023-04-04T07:09:37;5.86;118.99
66102;HTU21D;52883;51.094;5.880;2023-04-04T07:12:03;5.97;112.96
66102;HTU21D;52883;51.094;5.880;2023-04-04T07:14:28;5.56;110.55
66102;HTU21D;52883;51.094;5.880;2023-04-04T07:16:54;4.97;113.42
66102;HTU21D;52883;51.094;5.880;2023-04-04T07:19:20;4.54;118.99
66102;HTU21D;52883;51.094;5.880;2023-04-04T07:21:48;4.18;118.99
66102;HTU21D;52883;51.094;5.880;2023-04-04T07:24:14;3.92;118.99
66102;HTU21D;52883;51.094;5.880;2023-04-04T07:26:39;3.82;118.99
66102;HTU21D;52883;51.094;5.880;2023-04-04T07:29:05;3.83;118.99
66102;HTU21D;52883;51.094;5.880;2023-04-04T07:31:31;3.91;118.99
66102;HTU21D;52883;51.094;5.880;2023-04-04T07:33:56;3.97;118.99
66102;HTU21D;52883;51.094;5.880;2023-04-04T07:36:22;4.04;118.99
66102;HTU21D;52883;51.094;5.880;2023-04-04T07:38:47;4.19;118.99
66102;HTU21D;52883;51.094;5.880;2023-04-04T07:41:13;4.34;118.99
66102;HTU21D;52883;51.094;5.880;2023-04-04T07:43:39;4.41;118.99
66102;HTU21D;52883;51.094;5.880;2023-04-04T07:46:04;4.46;118.99
66102;HTU21D;52883;51.094;5.880;2023-04-04T07:48:30;4.56;116.03
66102;HTU21D;52883;51.094;5.880;2023-04-04T07:50:55;4.57;117.70
66102;HTU21D;52883;51.094;5.880;2023-04-04T07:53:21;4.64;118.99
66102;HTU21D;52883;51.094;5.880;2023-04-04T07:55:47;4.75;117.06
66102;HTU21D;52883;51.094;5.880;2023-04-04T07:58:13;4.87;118.99
66102;HTU21D;52883;51.094;5.880;2023-04-04T08:00:38;4.98;118.99
66102;HTU21D;52883;51.094;5.880;2023-04-04T08:03:04;5.04;113.03
66102;HTU21D;52883;51.094;5.880;2023-04-04T08:05:30;5.05;108.28
66102;HTU21D;52883;51.094;5.880;2023-04-04T08:07:56;4.97;110.84
66102;HTU21D;52883;51.094;5.880;2023-04-04T08:10:22;4.92;108.69
66102;HTU21D;52883;51.094;5.880;2023-04-04T08:12:47;5.03;113.60
66102;HTU21D;52883;51.094;5.880;2023-04-04T08:15:13;5.18;108.14
66102;HTU21D;52883;51.094;5.880;2023-04-04T08:17:39;5.33;101.61
66102;HTU21D;52883;51.094;5.880;2023-04-04T08:20:05;5.42;108.23
66102;HTU21D;52883;51.094;5.880;2023-04-04T08:22:31;5.65;107.24
66102;HTU21D;52883;51.094;5.880;2023-04-04T08:24:58;5.80;96.20
66102;HTU21D;52883;51.094;5.880;2023-04-04T08:27:24;5.89;96.97
66102;HTU21D;52883;51.094;5.880;2023-04-04T08:29:50;6.14;85.38
66102;HTU21D;52883;51.094;5.880;2023-04-04T08:32:16;6.20;91.80
66102;HTU21D;52883;51.094;5.880;2023-04-04T08:34:42;6.48;94.19
66102;HTU21D;52883;51.094;5.880;2023-04-04T08:37:07;6.93;80.45
66102;HTU21D;52883;51.094;5.880;2023-04-04T08:39:33;6.85;70.48
66102;HTU21D;52883;51.094;5.880;2023-04-04T08:42:04;6.68;81.14
66102;HTU21D;52883;51.094;5.880;2023-04-04T08:44:31;6.85;77.71
66102;HTU21D;52883;51.094;5.880;2023-04-04T08:46:59;7.25;93.48
66102;HTU21D;52883;51.094;5.880;2023-04-04T08:49:26;7.98;80.51
66102;HTU21D;52883;51.094;5.880;2023-04-04T08:51:55;8.44;60.56
66102;HTU21D;52883;51.094;5.880;2023-04-04T08:54:24;8.24;70.29
66102;HTU21D;52883;51.094;5.880;2023-04-04T08:56:50;8.19;62.57
66102;HTU21D;52883;51.094;5.880;2023-04-04T08:59:16;8.53;63.92
66102;HTU21D;52883;51.094;5.880;2023-04-04T09:01:43;8.86;62.19
66102;HTU21D;52883;51.094;5.880;2023-04-04T09:04:10;8.71;68.91
66102;HTU21D;52883;51.094;5.880;2023-04-04T09:06:36;8.72;60.18
66102;HTU21D;52883;51.094;5.880;2023-04-04T09:09:02;8.91;66.47
66102;HTU21D;52883;51.094;5.880;2023-04-04T09:11:30;9.06;59.90
66102;HTU21D;52883;51.094;5.880;2023-04-04T09:13:57;8.93;68.27
66102;HTU21D;52883;51.094;5.880;2023-04-04T09:16:25;8.90;78.51
66102;HTU21D;52883;51.094;5.880;2023-04-04T09:18:51;9.17;77.48
66102;HTU21D;52883;51.094;5.880;2023-04-04T09:21:18;9.49;72.11
66102;HTU21D;52883;51.094;5.880;2023-04-04T09:23:44;9.76;61.18
66102;HTU21D;52883;51.094;5.880;2023-04-04T09:26:09;9.76;59.57
66102;HTU21D;52883;51.094;5.880;2023-04-04T09:28:37;9.82;68.66
66102;HTU21D;52883;51.094;5.880;2023-04-04T09:31:06;10.16;72.70
66102;HTU21D;52883;51.094;5.880;2023-04-04T09:33:37;10.31;67.65
66102;HTU21D;52883;51.094;5.880;2023-04-04T09:36:07;10.63;68.96
66102;HTU21D;52883;51.094;5.880;2023-04-04T09:38:38;10.72;64.82
66102;HTU21D;52883;51.094;5.880;2023-04-04T09:41:07;10.89;66.96
66102;HTU21D;52883;51.094;5.880;2023-04-04T09:43:38;11.18;62.41
66102;HTU21D;52883;51.094;5.880;2023-04-04T09:46:04;10.99;54.49
66102;HTU21D;52883;51.094;5.880;2023-04-04T09:48:32;11.11;56.58
66102;HTU21D;52883;51.094;5.880;2023-04-04T09:50:59;11.13;57.05
66102;HTU21D;52883;51.094;5.880;2023-04-04T09:53:26;10.95;68.71
66102;HTU21D;52883;51.094;5.880;2023-04-04T09:55:53;11.15;52.04
66102;HTU21D;52883;51.094;5.880;2023-04-04T09:58:29;11.46;56.67
66102;HTU21D;52883;51.094;5.880;2023-04-04T10:01:01;11.63;63.73
66102;HTU21D;52883;51.094;5.880;2023-04-04T10:03:29;11.69;66.97
66102;HTU21D;52883;51.094;5.880;2023-04-04T10:06:05;11.82;67.68
66102;HTU21D;52883;51.094;5.880;2023-04-04T10:08:32;12.03;65.88
66102;HTU21D;52883;51.094;5.880;2023-04-04T10:11:03;12.41;55.20
66102;HTU21D;52883;51.094;5.880;2023-04-04T10:13:30;12.34;62.31
66102;HTU21D;52883;51.094;5.880;2023-04-04T10:15:58;12.48;58.72
66102;HTU21D;52883;51.094;5.880;2023-04-04T10:18:26;12.74;62.06
66102;HTU21D;52883;51.094;5.880;2023-04-04T10:20:54;12.79;58.36
66102;HTU21D;52883;51.094;5.880;2023-04-04T10:23:21;12.67;55.58
66102;HTU21D;52883;51.094;5.880;2023-04-04T10:25:51;12.75;70.06
66102;HTU21D;52883;51.094;5.880;2023-04-04T10:28:17;12.87;53.41
66102;HTU21D;52883;51.094;5.880;2023-04-04T10:30:54;12.94;66.65
66102;HTU21D;52883;51.094;5.880;2023-04-04T10:36:02;12.80;54.84
66102;HTU21D;52883;51.094;5.880;2023-04-04T10:38:37;12.85;48.95
66102;HTU21D;52883;51.094;5.880;2023-04-04T10:41:06;12.85;73.99
66102;HTU21D;52883;51.094;5.880;2023-04-04T10:43:34;13.01;48.87
66102;HTU21D;52883;51.094;5.880;2023-04-04T10:46:10;13.00;58.53
66102;HTU21D;52883;51.094;5.880;2023-04-04T10:48:40;12.93;57.90
66102;HTU21D;52883;51.094;5.880;2023-04-04T10:51:10;13.03;53.83
66102;HTU21D;52883;51.094;5.880;2023-04-04T10:53:37;13.25;59.15
66102;HTU21D;52883;51.094;5.880;2023-04-04T10:56:04;13.56;61.00
66102;HTU21D;52883;51.094;5.880;2023-04-04T10:58:30;13.90;44.49
66102;HTU21D;52883;51.094;5.880;2023-04-04T11:00:56;13.99;52.39
66102;HTU21D;52883;51.094;5.880;2023-04-04T11:03:23;13.80;47.77
66102;HTU21D;52883;51.094;5.880;2023-04-04T11:05:50;13.56;59.69
66102;HTU21D;52883;51.094;5.880;2023-04-04T11:08:26;13.34;59.61
66102;HTU21D;52883;51.094;5.880;2023-04-04T11:10:53;13.40;70.48
66102;HTU21D;52883;51.094;5.880;2023-04-04T11:13:26;13.30;74.89
66102;HTU21D;52883;51.094;5.880;2023-04-04T11:15:57;13.25;51.86
66102;HTU21D;52883;51.094;5.880;2023-04-04T11:21:30;12.88;61.50
66102;HTU21D;52883;51.094;5.880;2023-04-04T11:28:55;12.97;44.62
66102;HTU21D;52883;51.094;5.880;2023-04-04T11:31:24;13.14;57.16
66102;HTU21D;52883;51.094;5.880;2023-04-04T11:34:07;13.17;60.09
66102;HTU21D;52883;51.094;5.880;2023-04-04T11:39:08;13.33;48.56
66102;HTU21D;52883;51.094;5.880;2023-04-04T11:44:26;13.41;46.31
66102;HTU21D;52883;51.094;5.880;2023-04-04T11:49:42;13.17;47.61
66102;HTU21D;52883;51.094;5.880;2023-04-04T11:52:10;13.26;44.23
66102;HTU21D;52883;51.094;5.880;2023-04-04T11:54:36;13.44;46.76
66102;HTU21D;52883;51.094;5.880;2023-04-04T11:57:05;13.56;45.20
66102;HTU21D;52883;51.094;5.880;2023-04-04T11:59:31;13.66;50.68
66102;HTU21D;52883;51.094;5.880;2023-04-04T12:01:58;14.00;45.14
66102;HTU21D;52883;51.094;5.880;2023-04-04T12:04:25;14.11;46.19
66102;HTU21D;52883;51.094;5.880;2023-04-04T12:06:54;14.03;47.08
66102;HTU21D;52883;51.094;5.880;2023-04-04T12:09:22;14.05;49.73
66102;HTU21D;52883;51.094;5.880;2023-04-04T12:11:50;14.04;41.94
66102;HTU21D;52883;51.094;5.880;2023-04-04T12:14:20;14.25;56.84
66102;HTU21D;52883;51.094;5.880;2023-04-04T12:16:48;14.33;52.24
66102;HTU21D;52883;51.094;5.880;2023-04-04T12:19:15;14.23;46.86
66102;HTU21D;52883;51.094;5.880;2023-04-04T12:21:41;14.12;46.28
66102;HTU21D;52883;51.094;5.880;2023-04-04T12:24:08;13.51;64.36
66102;HTU21D;52883;51.094;5.880;2023-04-04T12:26:36;13.66;53.71
66102;HTU21D;52883;51.094;5.880;2023-04-04T12:29:02;13.84;48.41
66102;HTU21D;52883;51.094;5.880;2023-04-04T12:31:31;14.03;41.28
66102;HTU21D;52883;51.094;5.880;2023-04-04T12:33:57;14.13;50.45
66102;HTU21D;52883;51.094;5.880;2023-04-04T12:36:36;14.37;40.46
66102;HTU21D;52883;51.094;5.880;2023-04-04T12:39:09;14.42;42.68
66102;HTU21D;52883;51.094;5.880;2023-04-04T12:41:59;14.59;38.98
66102;HTU21D;52883;51.094;5.880;2023-04-04T12:44:35;14.62;38.70
66102;HTU21D;52883;51.094;5.880;2023-04-04T12:47:03;14.56;35.05
66102;HTU21D;52883;51.094;5.880;2023-04-04T12:49:41;14.67;44.96
66102;HTU21D;52883;51.094;5.880;2023-04-04T12:52:25;15.01;38.42
66102;HTU21D;52883;51.094;5.880;2023-04-04T12:54:51;15.07;38.49
66102;HTU21D;52883;51.094;5.880;2023-04-04T12:57:20;15.03;41.49
66102;HTU21D;52883;51.094;5.880;2023-04-04T12:59:47;14.84;36.18
66102;HTU21D;52883;51.094;5.880;2023-04-04T13:02:17;14.91;39.75
66102;HTU21D;52883;51.094;5.880;2023-04-04T13:04:44;14.86;35.76
66102;HTU21D;52883;51.094;5.880;2023-04-04T13:07:24;14.37;43.77
66102;HTU21D;52883;51.094;5.880;2023-04-04T13:09:54;14.51;40.59
66102;HTU21D;52883;51.094;5.880;2023-04-04T13:12:21;14.48;39.36
66102;HTU21D;52883;51.094;5.880;2023-04-04T13:15:00;14.49;40.78
66102;HTU21D;52883;51.094;5.880;2023-04-04T13:20:06;14.63;38.03
66102;HTU21D;52883;51.094;5.880;2023-04-04T13:22:37;14.82;46.30
66102;HTU21D;52883;51.094;5.880;2023-04-04T13:25:04;15.03;43.04
66102;HTU21D;52883;51.094;5.880;2023-04-04T13:27:30;15.03;46.31
66102;HTU21D;52883;51.094;5.880;2023-04-04T13:29:55;14.99;39.88
66102;HTU21D;52883;51.094;5.880;2023-04-04T13:32:21;14.97;39.20
66102;HTU21D;52883;51.094;5.880;2023-04-04T13:34:47;14.88;40.09
66102;HTU21D;52883;51.094;5.880;2023-04-04T13:37:12;14.77;45.67
66102;HTU21D;52883;51.094;5.880;2023-04-04T13:39:38;14.83;51.14
66102;HTU21D;52883;51.094;5.880;2023-04-04T13:42:03;15.13;42.49
66102;HTU21D;52883;51.094;5.880;2023-04-04T13:44:29;15.36;48.48
66102;HTU21D;52883;51.094;5.880;2023-04-04T13:46:55;15.59;41.97
66102;HTU21D;52883;51.094;5.880;2023-04-04T13:49:20;15.37;35.31
66102;HTU21D;52883;51.094;5.880;2023-04-04T13:51:46;15.13;37.69
66102;HTU21D;52883;51.094;5.880;2023-04-04T13:54:12;15.27;49.02
66102;HTU21D;52883;51.094;5.880;2023-04-04T13:56:39;15.56;45.55
66102;HTU21D;52883;51.094;5.880;2023-04-04T13:59:04;15.51;42.77
66102;HTU21D;52883;51.094;5.880;2023-04-04T14:01:30;15.42;44.49
66102;HTU21D;52883;51.094;5.880;2023-04-04T14:03:56;15.45;37.11
66102;HTU21D;52883;51.094;5.880;2023-04-04T14:06:22;15.56;44.36
66102;HTU21D;52883;51.094;5.880;2023-04-04T14:08:47;15.68;35.69
66102;HTU21D;52883;51.094;5.880;2023-04-04T14:11:14;15.46;34.12
66102;HTU21D;52883;51.094;5.880;2023-04-04T14:13:40;15.28;39.85
66102;HTU21D;52883;51.094;5.880;2023-04-04T14:16:07;15.12;35.99
66102;HTU21D;52883;51.094;5.880;2023-04-04T14:18:33;15.32;37.71
66102;HTU21D;52883;51.094;5.880;2023-04-04T14:21:02;15.42;36.27
66102;HTU21D;52883;51.094;5.880;2023-04-04T14:23:28;15.27;35.04
66102;HTU21D;52883;51.094;5.880;2023-04-04T14:25:57;14.92;35.34
66102;HTU21D;52883;51.094;5.880;2023-04-04T14:28:22;14.67;41.09
66102;HTU21D;52883;51.094;5.880;2023-04-04T14:30:49;14.68;37.40
66102;HTU21D;52883;51.094;5.880;2023-04-04T14:33:17;14.56;38.80
66102;HTU21D;52883;51.094;5.880;2023-04-04T14:35:43;14.40;36.90
66102;HTU21D;52883;51.094;5.880;2023-04-04T14:38:08;14.36;39.27
66102;HTU21D;52883;51.094;5.880;2023-04-04T14:40:34;14.34;38.13
66102;HTU21D;52883;51.094;5.880;2023-04-04T14:42:59;14.01;39.27
66102;HTU21D;52883;51.094;5.880;2023-04-04T14:45:25;13.54;35.04
66102;HTU21D;52883;51.094;5.880;2023-04-04T14:47:53;13.21;40.26
66102;HTU21D;52883;51.094;5.880;2023-04-04T14:50:19;12.97;36.62
66102;HTU21D;52883;51.094;5.880;2023-04-04T14:52:44;12.69;40.19
66102;HTU21D;52883;51.094;5.880;2023-04-04T14:55:12;12.40;40.47
66102;HTU21D;52883;51.094;5.880;2023-04-04T14:57:37;12.06;42.20
66102;HTU21D;52883;51.094;5.880;2023-04-04T15:00:03;11.81;43.53
66102;HTU21D;52883;51.094;5.880;2023-04-04T15:02:29;11.56;43.61
66102;HTU21D;52883;51.094;5.880;2023-04-04T15:04:55;11.31;43.97
66102;HTU21D;52883;51.094;5.880;2023-04-04T15:07:20;11.16;47.57
66102;HTU21D;52883;51.094;5.880;2023-04-04T15:09:48;11.09;43.93
66102;HTU21D;52883;51.094;5.880;2023-04-04T15:12:14;10.97;47.22
66102;HTU21D;52883;51.094;5.880;2023-04-04T15:14:40;10.84;45.21
66102;HTU21D;52883;51.094;5.880;2023-04-04T15:17:05;10.75;48.49
66102;HTU21D;52883;51.094;5.880;2023-04-04T15:19:31;10.69;49.37
66102;HTU21D;52883;51.094;5.880;2023-04-04T15:21:57;10.63;48.37
66102;HTU21D;52883;51.094;5.880;2023-04-04T15:24:23;10.53;44.09
66102;HTU21D;52883;51.094;5.880;2023-04-04T15:26:49;10.52;48.70
66102;HTU21D;52883;51.094;5.880;2023-04-04T15:29:14;10.46;47.15
66102;HTU21D;52883;51.094;5.880;2023-04-04T15:31:40;10.37;48.99
66102;HTU21D;52883;51.094;5.880;2023-04-04T15:34:07;10.25;53.16
66102;HTU21D;52883;51.094;5.880;2023-04-04T15:36:33;10.22;52.19
66102;HTU21D;52883;51.094;5.880;2023-04-04T15:39:00;10.20;49.55
66102;HTU21D;52883;51.094;5.880;2023-04-04T15:41:26;10.21;46.89